Time;durP1;ratioP1;P1;durP2;ratioP2;P2;SDS_P1;SDS_P2;PMS_P1;PMS_P2;Temp;Humidity;BMP_temperature;BMP_pressure;BME280_temperature;BME280_humidity;BME280_pressure;Samples;Min_cycle;Max_cycle;Signal;HPM_P1;HPM_P2
2021/06/13 00:01:41;;;;;;;50.20;30.33;;;;;;;16.16;83.02;98826.59;5052407;28;20079;-61
2021/06/13 00:04:06;;;;;;;47.20;30.80;;;;;;;16.14;82.71;98814.44;5048769;28;20137;-64
2021/06/13 00:06:32;;;;;;;47.75;29.15;;;;;;;16.22;82.58;98828.00;5050449;28;20049;-61
2021/06/13 00:08:58;;;;;;;53.22;31.33;;;;;;;16.12;82.65;98817.19;5051048;28;20084;-61
2021/06/13 00:11:24;;;;;;;50.80;31.52;;;;;;;16.18;82.84;98826.50;5050537;28;20045;-63
2021/06/13 00:13:50;;;;;;;52.33;30.42;;;;;;;16.11;82.66;98806.72;5049230;28;20044;-62
2021/06/13 00:16:17;;;;;;;47.15;31.10;;;;;;;16.12;82.89;98809.25;5051087;28;20521;-62
2021/06/13 00:18:43;;;;;;;58.67;31.60;;;;;;;16.24;82.76;98810.28;5052241;28;20045;-62
2021/06/13 00:21:10;;;;;;;55.70;32.33;;;;;;;16.20;81.81;98803.50;5051675;28;20041;-63
2021/06/13 00:23:38;;;;;;;53.00;35.70;;;;;;;16.35;82.00;98822.81;5051416;28;20202;-62
2021/06/13 00:26:03;;;;;;;50.33;30.52;;;;;;;16.38;81.65;98828.78;5051006;28;20091;-62
2021/06/13 00:28:29;;;;;;;47.15;30.40;;;;;;;16.43;81.30;98824.06;5051895;28;20607;-62
2021/06/13 00:30:55;;;;;;;52.97;33.20;;;;;;;16.43;81.41;98810.88;5049917;28;20045;-62
2021/06/13 00:33:21;;;;;;;56.10;33.47;;;;;;;16.43;81.27;98802.94;5052249;28;20510;-61
2021/06/13 00:35:47;;;;;;;57.65;34.53;;;;;;;16.49;81.07;98804.34;5051996;28;20044;-62
2021/06/13 00:38:14;;;;;;;48.78;31.65;;;;;;;16.49;81.16;98802.56;5051865;28;20044;-62
2021/06/13 00:40:39;;;;;;;50.90;33.42;;;;;;;16.59;81.04;98821.31;5049488;28;20098;-61
2021/06/13 00:43:06;;;;;;;53.17;35.67;;;;;;;16.53;80.91;98811.13;5051411;28;20041;-63
2021/06/13 00:45:31;;;;;;;50.22;32.15;;;;;;;16.56;80.64;98825.94;5051094;28;20131;-62
2021/06/13 00:47:57;;;;;;;42.00;28.73;;;;;;;16.58;81.10;98824.03;5049260;28;20044;-62
2021/06/13 00:50:42;;;;;;;43.65;28.20;;;;;;;16.58;80.92;98822.25;5049206;28;20549;-62
2021/06/13 00:53:09;;;;;;;42.22;29.70;;;;;;;16.57;80.67;98820.56;5051503;28;20080;-62
2021/06/13 00:55:39;;;;;;;53.65;31.35;;;;;;;16.52;80.76;98804.16;5066058;28;20611;-62
2021/06/13 00:58:06;;;;;;;58.90;36.42;;;;;;;16.60;80.85;98825.63;5048587;28;20069;-62
2021/06/13 01:00:34;;;;;;;58.72;37.88;;;;;;;16.61;80.83;98823.84;5051461;28;20132;-61
2021/06/13 01:03:00;;;;;;;51.92;35.78;;;;;;;16.58;80.77;98827.53;5051084;28;20044;-61
2021/06/13 01:05:28;;;;;;;54.83;35.90;;;;;;;16.56;80.97;98824.13;5049940;28;20494;-62
2021/06/13 01:08:10;;;;;;;54.25;33.95;;;;;;;16.51;81.10;98823.59;5049651;28;20056;-61
2021/06/13 01:10:38;;;;;;;55.13;33.57;;;;;;;16.50;81.24;98832.44;5051371;28;20052;-60
2021/06/13 01:13:04;;;;;;;57.50;32.45;;;;;;;16.48;81.40;98829.06;5051045;28;20052;-61
2021/06/13 01:15:35;;;;;;;61.13;34.83;;;;;;;16.46;81.19;98826.50;5050298;28;20045;-62
2021/06/13 01:18:12;;;;;;;51.28;33.03;;;;;;;16.43;80.86;98841.69;5050865;28;20069;-61
2021/06/13 01:21:17;;;;;;;47.25;32.38;;;;;;;16.45;80.68;98839.81;5035117;28;20067;-62
2021/06/13 01:24:08;;;;;;;47.63;32.25;;;;;;;16.40;80.75;98821.63;5041268;28;20049;-63
2021/06/13 01:26:51;;;;;;;49.20;29.10;;;;;;;16.50;80.05;98827.16;5050932;28;20406;-61
2021/06/13 01:29:29;;;;;;;44.50;28.67;;;;;;;16.62;79.86;98844.88;5049333;28;20564;-62
2021/06/13 01:31:57;;;;;;;42.70;28.42;;;;;;;16.55;79.77;98830.38;5033381;28;20041;-62
2021/06/13 01:34:29;;;;;;;45.33;28.63;;;;;;;16.65;79.64;98843.81;5050414;28;20055;-62
2021/06/13 01:36:56;;;;;;;44.40;28.58;;;;;;;16.57;79.68;98823.19;5051312;28;20040;-62
2021/06/13 01:39:27;;;;;;;51.15;30.88;;;;;;;16.55;79.64;98817.16;5049936;28;20182;-61
2021/06/13 01:41:59;;;;;;;45.88;29.70;;;;;;;16.60;79.75;98833.56;5033339;28;20033;-62
2021/06/13 01:44:27;;;;;;;48.50;29.02;;;;;;;16.56;79.48;98816.22;5034355;28;20033;-62
2021/06/13 01:46:54;;;;;;;51.97;30.50;;;;;;;16.68;79.41;98836.59;5064826;28;20060;-60
2021/06/13 01:49:21;;;;;;;49.95;29.80;;;;;;;16.73;79.21;98828.38;5049286;28;20458;-62
2021/06/13 01:51:49;;;;;;;45.67;29.48;;;;;;;16.78;78.90;98832.41;5049209;28;20045;-62
2021/06/13 01:54:15;;;;;;;44.38;28.70;;;;;;;16.75;78.86;98824.69;5032002;28;20063;-61
2021/06/13 01:56:46;;;;;;;43.75;29.88;;;;;;;16.82;78.89;98828.63;5032711;28;20072;-63
2021/06/13 01:59:17;;;;;;;40.60;28.77;;;;;;;16.83;78.55;98822.41;5049997;28;20114;-62
2021/06/13 02:01:50;;;;;;;44.83;28.25;;;;;;;16.94;78.43;98816.44;5065526;28;20044;-62
2021/06/13 02:04:18;;;;;;;50.13;28.60;;;;;;;16.92;78.08;98812.19;5049207;28;20076;-63
2021/06/13 02:06:51;;;;;;;49.20;30.27;;;;;;;16.84;78.20;98810.91;5033117;28;20515;-62
2021/06/13 02:09:24;;;;;;;56.22;31.75;;;;;;;16.89;78.51;98830.88;5065875;28;20055;-62
2021/06/13 02:11:59;;;;;;;50.30;30.23;;;;;;;16.86;78.96;98824.00;5065025;28;20481;-61
2021/06/13 02:14:26;;;;;;;;;;;;;;;16.79;79.11;98830.63;5049223;28;20263;-62
2021/06/13 02:16:58;;;;;;;41.15;27.00;;;;;;;16.74;78.63;98825.63;5048564;28;19921;-62
2021/06/13 02:19:27;;;;;;;47.88;28.80;;;;;;;16.67;78.58;98812.94;5050732;28;20053;-62
2021/06/13 02:22:01;;;;;;;47.95;29.90;;;;;;;16.71;78.77;98819.72;5046555;28;20612;-61
2021/06/13 02:24:30;;;;;;;48.78;31.88;;;;;;;16.62;78.60;98822.91;5049428;28;20037;-66
2021/06/13 02:26:57;;;;;;;45.25;32.15;;;;;;;16.52;78.56;98806.78;5048657;28;20103;-62
2021/06/13 02:29:24;;;;;;;42.08;29.00;;;;;;;16.74;78.08;98823.00;5031478;28;20043;-63
2021/06/13 02:31:51;;;;;;;38.50;27.45;;;;;;;16.87;77.15;98815.13;5033056;28;20052;-63
2021/06/13 02:34:21;;;;;;;40.97;26.42;;;;;;;17.15;76.58;98812.41;5032495;28;20516;-62
2021/06/13 02:36:50;;;;;;;37.38;26.17;;;;;;;17.28;75.41;98803.66;5049101;28;20521;-62
2021/06/13 02:39:18;;;;;;;35.88;26.67;;;;;;;17.33;75.35;98818.28;5048579;28;20048;-63
2021/06/13 02:41:44;;;;;;;45.78;26.42;;;;;;;17.19;75.62;98797.19;5064711;28;20033;-61
2021/06/13 02:44:10;;;;;;;36.72;24.42;;;;;;;17.41;74.99;98807.19;5049531;28;20041;-64
2021/06/13 02:46:37;;;;;;;30.02;23.23;;;;;;;17.54;74.11;98804.56;5049049;28;20067;-63
2021/06/13 02:49:09;;;;;;;29.98;22.27;;;;;;;17.66;73.72;98806.38;5048416;28;20036;-63
2021/06/13 02:51:56;;;;;;;32.78;24.08;;;;;;;17.63;73.79;98817.16;5047997;28;20033;-62
2021/06/13 02:54:25;;;;;;;35.67;22.52;;;;;;;17.62;73.66;98816.31;5047794;28;20041;-61
2021/06/13 02:56:58;;;;;;;30.25;22.75;;;;;;;17.66;73.39;98816.94;5031307;28;20044;-62
2021/06/13 02:59:36;;;;;;;31.33;23.77;;;;;;;17.70;73.20;98818.47;5066055;28;20136;-62
2021/06/13 03:02:06;;;;;;;28.83;22.67;;;;;;;17.66;73.19;98801.06;5031192;28;20048;-62
2021/06/13 03:04:35;;;;;;;32.42;24.73;;;;;;;17.75;72.94;98817.19;5047415;28;20390;-63
2021/06/13 03:07:02;;;;;;;36.25;24.63;;;;;;;17.76;72.94;98816.25;5047646;28;20053;-62
2021/06/13 03:09:30;;;;;;;34.20;24.60;;;;;;;17.92;72.51;98818.72;5048280;28;20061;-61
2021/06/13 03:11:58;;;;;;;35.33;24.95;;;;;;;18.19;71.46;98823.03;5046312;28;20048;-62
2021/06/13 03:14:26;;;;;;;33.38;24.67;;;;;;;18.47;70.60;98817.47;5049175;28;20044;-62
2021/06/13 03:16:53;;;;;;;38.45;25.50;;;;;;;18.58;70.21;98824.66;5048334;28;20041;-61
2021/06/13 03:19:19;;;;;;;34.30;25.70;;;;;;;18.54;69.87;98807.28;5047674;28;20044;-63
2021/06/13 03:21:46;;;;;;;38.42;27.45;;;;;;;18.43;70.34;98810.72;5066008;28;20525;-61
2021/06/13 03:24:14;;;;;;;40.83;28.77;;;;;;;18.25;70.79;98825.25;5015811;28;20044;-62
2021/06/13 03:26:42;;;;;;;37.55;27.25;;;;;;;18.17;71.11;98822.31;5049744;28;20125;-61
2021/06/13 03:29:09;;;;;;;43.47;28.02;;;;;;;18.22;71.03;98822.81;5048459;28;20047;-61
2021/06/13 03:31:35;;;;;;;42.83;27.48;;;;;;;18.35;71.04;98828.94;5031960;28;20151;-62
2021/06/13 03:34:02;;;;;;;42.55;28.60;;;;;;;18.32;70.96;98829.16;5064021;28;20418;-63
2021/06/13 03:36:30;;;;;;;40.95;27.70;;;;;;;18.39;70.54;98830.41;5033080;28;20044;-62
2021/06/13 03:38:57;;;;;;;32.13;26.15;;;;;;;18.49;70.19;98831.47;5048980;28;20136;-62
2021/06/13 03:41:25;;;;;;;43.17;27.73;;;;;;;18.55;69.45;98815.13;5030922;28;20041;-63
2021/06/13 03:43:52;;;;;;;32.33;25.60;;;;;;;18.73;69.09;98819.16;5048865;28;20067;-62
2021/06/13 03:46:19;;;;;;;33.70;26.77;;;;;;;18.72;68.92;98817.47;5050310;28;20497;-62
2021/06/13 03:48:45;;;;;;;41.85;26.42;;;;;;;18.90;68.65;98825.03;5049839;28;20420;-63
2021/06/13 03:51:14;;;;;;;35.70;26.27;;;;;;;18.89;68.48;98820.69;5051420;28;20470;-63
2021/06/13 03:53:54;;;;;;;34.85;26.23;;;;;;;19.15;68.25;98827.59;5050248;28;20552;-63
2021/06/13 03:56:26;;;;;;;33.03;26.20;;;;;;;19.42;67.21;98834.47;5052964;28;20044;-63
2021/06/13 03:58:52;;;;;;;37.63;26.33;;;;;;;19.71;66.16;98830.50;5052784;28;20036;-63
2021/06/13 04:01:20;;;;;;;34.28;25.02;;;;;;;19.92;65.67;98830.66;5051709;28;20509;-63
2021/06/13 04:03:48;;;;;;;32.53;24.90;;;;;;;20.05;64.70;98818.13;5052971;28;20131;-62
2021/06/13 04:06:14;;;;;;;31.20;22.45;;;;;;;20.36;63.75;98829.03;5052229;28;20564;-63
2021/06/13 04:08:39;;;;;;;37.00;22.80;;;;;;;20.77;62.73;98823.94;5052339;28;20061;-62
2021/06/13 04:11:07;;;;;;;36.63;24.42;;;;;;;21.08;61.65;98821.47;5052025;28;20045;-62
2021/06/13 04:13:33;;;;;;;36.05;25.00;;;;;;;21.37;60.86;98827.06;5051962;28;20053;-62
2021/06/13 04:15:59;;;;;;;34.03;24.00;;;;;;;21.49;60.12;98826.88;5051780;28;20052;-63
2021/06/13 04:18:25;;;;;;;31.52;21.52;;;;;;;22.03;58.28;98833.88;5050075;28;20044;-62
2021/06/13 04:20:52;;;;;;;34.22;21.58;;;;;;;22.09;58.27;98825.38;5052812;28;20414;-61
2021/06/13 04:23:17;;;;;;;42.28;21.98;;;;;;;22.04;58.43;98838.22;5050345;28;20494;-60
2021/06/13 04:25:44;;;;;;;37.42;22.83;;;;;;;22.00;58.40;98836.78;5052137;28;20044;-63
2021/06/13 04:28:14;;;;;;;44.80;24.63;;;;;;;22.54;57.29;98829.50;5052491;28;20049;-62
2021/06/13 04:30:41;;;;;;;51.67;23.70;;;;;;;23.83;54.26;98833.81;5050147;28;20083;-62
2021/06/13 04:33:07;;;;;;;48.58;21.52;;;;;;;25.86;48.32;98852.34;5035161;28;20438;-62
2021/06/13 04:35:32;;;;;;;42.25;19.95;;;;;;;26.47;46.12;98829.16;5050639;28;20103;-62
2021/06/13 04:37:58;;;;;;;36.20;18.63;;;;;;;26.87;45.08;98823.13;5050944;28;20032;-63
2021/06/13 04:40:24;;;;;;;31.52;18.13;;;;;;;27.22;44.96;98841.72;5051515;28;20041;-61
2021/06/13 04:42:49;;;;;;;26.45;17.48;;;;;;;27.01;45.29;98833.28;5049818;28;20159;-62
2021/06/13 04:45:15;;;;;;;18.88;15.05;;;;;;;26.89;44.80;98824.66;5050603;28;20079;-62
2021/06/13 04:47:41;;;;;;;20.65;16.45;;;;;;;27.04;44.37;98829.41;5051054;28;20494;-62
2021/06/13 04:50:07;;;;;;;26.15;16.25;;;;;;;26.68;45.23;98836.78;5050549;28;20094;-62
2021/06/13 04:52:36;;;;;;;18.67;15.65;;;;;;;26.19;46.31;98832.00;5050888;28;20052;-61
2021/06/13 04:55:21;;;;;;;18.55;16.00;;;;;;;26.45;46.31;98839.19;5048553;28;20131;-62
2021/06/13 04:58:19;;;;;;;26.70;18.15;;;;;;;27.60;43.68;98844.78;5050216;28;20049;-64
2021/06/13 05:00:45;;;;;;;19.55;15.38;;;;;;;28.24;42.00;98836.88;5048227;28;20532;-64
2021/06/13 05:03:11;;;;;;;17.92;15.88;;;;;;;29.29;39.86;98832.97;5052151;28;20040;-67
2021/06/13 05:05:36;;;;;;;22.92;16.27;;;;;;;30.09;38.19;98830.69;5050737;28;20044;-64
2021/06/13 05:08:03;;;;;;;20.08;15.18;;;;;;;30.75;36.83;98820.03;5051380;28;20052;-63
2021/06/13 05:10:29;;;;;;;17.58;14.13;;;;;;;31.10;35.90;98834.56;5050921;28;20125;-62
2021/06/13 05:12:55;;;;;;;17.52;15.02;;;;;;;30.52;37.12;98820.13;5050267;28;20091;-63
2021/06/13 05:15:22;;;;;;;18.25;13.68;;;;;;;30.27;37.60;98838.41;5051439;28;20068;-62
2021/06/13 05:17:49;;;;;;;17.63;12.88;;;;;;;30.04;37.79;98828.53;5049853;28;20041;-69
2021/06/13 05:20:15;;;;;;;18.25;11.52;;;;;;;30.27;36.62;98831.16;5049542;28;20064;-62
2021/06/13 05:22:50;;;;;;;14.70;10.98;;;;;;;30.41;36.97;98824.09;5048977;28;20040;-63
2021/06/13 05:25:16;;;;;;;17.45;11.30;;;;;;;30.54;36.46;98836.97;5050632;28;20048;-62
2021/06/13 05:27:43;;;;;;;14.75;11.05;;;;;;;30.67;36.53;98832.59;5049874;28;20136;-62
2021/06/13 05:30:09;;;;;;;13.73;11.18;;;;;;;30.86;36.28;98844.69;5050200;28;20131;-65
2021/06/13 05:32:35;;;;;;;15.15;10.93;;;;;;;30.98;35.71;98826.13;5049764;28;20069;-63
2021/06/13 05:35:01;;;;;;;24.40;10.63;;;;;;;31.07;35.18;98826.84;5049620;28;20068;-63
2021/06/13 05:37:29;;;;;;;11.38;9.95;;;;;;;31.37;35.38;98833.88;5048788;28;20072;-63
2021/06/13 05:39:54;;;;;;;14.50;10.43;;;;;;;31.63;34.53;98841.41;5049227;28;20044;-63
2021/06/13 05:42:20;;;;;;;11.43;9.50;;;;;;;31.52;34.35;98840.06;5048554;28;20037;-64
2021/06/13 05:44:46;;;;;;;10.82;9.15;;;;;;;31.51;34.27;98834.84;5047529;28;20120;-64
2021/06/13 05:47:11;;;;;;;14.25;8.48;;;;;;;31.43;34.62;98834.97;5047624;28;20060;-62
2021/06/13 05:49:37;;;;;;;9.73;7.35;;;;;;;31.60;33.48;98825.56;5063156;28;20048;-64
2021/06/13 05:52:03;;;;;;;15.40;9.00;;;;;;;31.98;33.69;98831.56;5048472;28;20040;-63
2021/06/13 05:54:29;;;;;;;6.65;6.00;;;;;;;31.74;32.84;98832.81;5047354;28;20136;-64
2021/06/13 05:56:54;;;;;;;7.05;5.20;;;;;;;31.85;32.02;98837.69;5048869;28;20045;-63
2021/06/13 05:59:20;;;;;;;8.32;6.22;;;;;;;31.69;32.57;98837.94;5048226;28;20660;-63
2021/06/13 06:01:46;;;;;;;6.80;4.63;;;;;;;31.35;32.04;98829.69;5061108;28;20040;-63
2021/06/13 06:04:11;;;;;;;7.43;5.53;;;;;;;31.63;32.33;98838.72;5048760;28;20080;-63
2021/06/13 06:06:37;;;;;;;7.20;4.85;;;;;;;32.10;32.31;98831.88;5047362;28;20041;-63
2021/06/13 06:09:03;;;;;;;8.13;5.50;;;;;;;31.77;32.30;98837.81;5045457;28;20114;-63
2021/06/13 06:11:29;;;;;;;16.67;5.53;;;;;;;32.46;31.96;98837.13;5047456;28;20053;-63
2021/06/13 06:13:55;;;;;;;5.35;4.80;;;;;;;32.10;31.61;98834.56;5046819;28;20193;-64
2021/06/13 06:16:21;;;;;;;11.25;4.63;;;;;;;31.72;32.06;98836.72;5047831;28;20462;-65
2021/06/13 06:18:47;;;;;;;5.22;3.65;;;;;;;31.19;31.50;98834.28;5047423;28;20390;-65
2021/06/13 06:21:13;;;;;;;6.15;4.40;;;;;;;31.55;32.94;98836.97;5047988;28;20478;-63
2021/06/13 06:23:39;;;;;;;6.72;4.55;;;;;;;32.21;32.43;98836.72;5047530;28;20040;-63
2021/06/13 06:26:04;;;;;;;4.13;3.83;;;;;;;31.42;32.11;98826.03;5048463;28;20044;-64
2021/06/13 06:28:30;;;;;;;4.95;4.10;;;;;;;31.81;31.07;98827.44;5047521;28;20044;-64
2021/06/13 06:30:56;;;;;;;4.63;4.00;;;;;;;32.46;30.58;98834.41;5047090;28;20044;-64
2021/06/13 06:33:22;;;;;;;4.93;3.90;;;;;;;32.93;29.71;98835.53;5048387;28;20484;-63
2021/06/13 06:35:47;;;;;;;6.95;3.92;;;;;;;33.27;29.85;98829.16;5046801;28;20502;-64
2021/06/13 06:38:13;;;;;;;4.18;3.13;;;;;;;32.71;29.68;98840.19;5047733;28;20068;-63
2021/06/13 06:40:39;;;;;;;3.80;3.50;;;;;;;33.77;27.88;98834.09;5047289;28;20045;-63
2021/06/13 06:43:05;;;;;;;5.75;3.95;;;;;;;32.52;30.77;98845.28;5047043;28;20143;-64
2021/06/13 06:45:30;;;;;;;6.50;4.53;;;;;;;32.11;31.55;98834.38;5046400;28;20115;-63
2021/06/13 06:47:56;;;;;;;11.48;4.45;;;;;;;31.79;31.57;98846.59;5045639;28;20052;-64
2021/06/13 06:50:22;;;;;;;5.60;4.00;;;;;;;32.65;31.01;98847.22;5047906;28;20499;-63
2021/06/13 06:52:48;;;;;;;5.05;4.47;;;;;;;31.85;32.28;98851.22;5046880;28;20411;-64
2021/06/13 06:55:15;;;;;;;4.05;3.75;;;;;;;32.30;30.46;98845.56;5046624;28;20036;-65
2021/06/13 06:57:43;;;;;;;5.60;4.00;;;;;;;32.18;31.30;98847.94;5045972;28;20502;-63
2021/06/13 07:00:10;;;;;;;4.32;3.92;;;;;;;31.58;31.95;98838.44;5046725;28;20048;-63
2021/06/13 07:02:36;;;;;;;3.78;3.08;;;;;;;32.02;29.73;98840.13;5048320;28;20565;-66
2021/06/13 07:05:06;;;;;;;6.35;3.60;;;;;;;32.23;30.14;98849.03;5047422;28;20087;-62
2021/06/13 07:07:32;;;;;;;4.00;3.60;;;;;;;31.75;31.89;98837.19;5047699;28;20068;-64
2021/06/13 07:09:57;;;;;;;4.28;3.92;;;;;;;31.81;31.50;98836.41;5046691;28;20429;-63
2021/06/13 07:12:25;;;;;;;3.80;3.50;;;;;;;33.10;30.25;98851.22;5046283;28;20398;-64
2021/06/13 07:14:51;;;;;;;5.63;3.95;;;;;;;32.64;32.04;98836.59;5046714;28;20072;-63
2021/06/13 07:17:17;;;;;;;6.78;4.22;;;;;;;32.52;30.56;98848.00;5055292;28;20050;-64
2021/06/13 07:19:42;;;;;;;5.63;4.32;;;;;;;32.44;31.84;98842.75;5029367;28;20086;-64
2021/06/13 07:22:08;;;;;;;4.72;3.97;;;;;;;32.55;31.38;98847.59;5031294;28;20190;-65
2021/06/13 07:24:34;;;;;;;4.43;4.03;;;;;;;32.67;31.39;98836.19;5031005;28;20473;-64
2021/06/13 07:27:00;;;;;;;10.30;4.25;;;;;;;32.69;30.56;98847.66;5015119;28;20041;-65
2021/06/13 07:29:26;;;;;;;5.30;3.83;;;;;;;32.39;30.42;98850.63;5030026;28;20048;-64
2021/06/13 07:31:51;;;;;;;3.60;3.30;;;;;;;32.16;30.29;98855.44;5029363;28;20057;-64
2021/06/13 07:34:17;;;;;;;4.22;2.88;;;;;;;32.37;29.31;98843.72;5029105;28;20068;-64
2021/06/13 07:36:43;;;;;;;3.53;3.08;;;;;;;32.82;28.71;98858.63;5039040;28;20391;-65
2021/06/13 07:39:09;;;;;;;5.55;2.97;;;;;;;31.81;30.02;98843.69;5033258;28;20048;-63
2021/06/13 07:41:35;;;;;;;4.15;2.70;;;;;;;31.81;28.87;98857.19;5040747;28;20053;-64
2021/06/13 07:44:01;;;;;;;3.10;2.80;;;;;;;32.91;27.87;98851.16;5030316;28;20041;-65
2021/06/13 07:46:27;;;;;;;6.65;3.22;;;;;;;32.49;28.87;98848.38;5029728;28;20049;-63
2021/06/13 07:48:53;;;;;;;2.67;2.50;;;;;;;31.96;28.69;98859.81;5029620;28;20037;-67
2021/06/13 07:51:20;;;;;;;2.67;2.45;;;;;;;31.43;28.31;98845.78;5041765;28;20044;-64
2021/06/13 07:53:46;;;;;;;2.30;2.20;;;;;;;31.78;27.73;98847.63;5060954;28;20053;-64
2021/06/13 07:56:15;;;;;;;2.45;2.35;;;;;;;32.63;27.40;98838.47;5027711;28;20045;-66
2021/06/13 07:58:41;;;;;;;3.92;2.60;;;;;;;32.03;28.06;98831.81;5013484;28;20200;-64
2021/06/13 08:01:07;;;;;;;2.40;2.20;;;;;;;31.35;28.71;98840.50;5029375;28;20415;-64
2021/06/13 08:03:32;;;;;;;3.00;2.80;;;;;;;31.76;28.98;98835.31;5031990;28;20525;-64
2021/06/13 08:05:58;;;;;;;3.20;3.00;;;;;;;31.64;29.63;98845.78;5029214;28;20572;-64
2021/06/13 08:08:24;;;;;;;4.40;3.08;;;;;;;31.34;30.07;98833.44;5046082;28;20061;-64
2021/06/13 08:10:50;;;;;;;2.97;2.78;;;;;;;31.74;28.95;98837.38;5049733;28;20109;-67
2021/06/13 08:13:16;;;;;;;3.75;2.88;;;;;;;31.44;28.79;98833.94;5049457;28;20044;-65
2021/06/13 08:15:42;;;;;;;5.65;3.30;;;;;;;31.84;29.31;98844.13;5049482;28;20037;-65
2021/06/13 08:18:08;;;;;;;3.65;3.08;;;;;;;32.19;28.30;98853.16;5048793;28;20051;-64
2021/06/13 08:20:34;;;;;;;3.13;2.80;;;;;;;31.52;28.21;98837.34;5048615;28;20458;-67
2021/06/13 08:23:00;;;;;;;3.38;2.80;;;;;;;31.96;28.29;98838.19;5050346;28;20041;-68
2021/06/13 08:25:26;;;;;;;4.25;3.20;;;;;;;31.59;29.41;98840.13;5048344;28;20098;-66
2021/06/13 08:27:53;;;;;;;4.13;3.30;;;;;;;31.91;29.18;98834.19;5048629;28;20510;-65
2021/06/13 08:30:19;;;;;;;3.40;3.10;;;;;;;31.77;29.77;98845.94;5049298;28;20071;-65
2021/06/13 08:32:45;;;;;;;5.15;3.35;;;;;;;31.76;29.67;98836.16;5063704;28;20040;-64
2021/06/13 08:35:12;;;;;;;3.72;3.05;;;;;;;31.01;30.88;98839.25;5048407;28;20488;-65
2021/06/13 08:37:38;;;;;;;5.40;3.25;;;;;;;31.38;30.00;98838.25;5047852;28;20037;-65
2021/06/13 08:40:08;;;;;;;3.33;2.97;;;;;;;31.34;29.60;98830.72;5049455;28;20048;-63
2021/06/13 08:42:34;;;;;;;4.45;3.20;;;;;;;31.76;29.33;98838.84;5048176;28;20094;-63
2021/06/13 08:44:59;;;;;;;3.53;3.08;;;;;;;31.11;30.89;98845.19;5047224;28;20032;-67
2021/06/13 08:47:27;;;;;;;4.47;3.20;;;;;;;31.16;31.08;98833.84;5047984;28;20406;-64
2021/06/13 08:49:53;;;;;;;4.10;3.10;;;;;;;31.40;30.13;98838.06;5046590;28;20041;-65
2021/06/13 08:52:19;;;;;;;3.03;2.75;;;;;;;30.93;30.25;98845.59;5047799;28;20044;-65
2021/06/13 08:54:45;;;;;;;5.82;3.28;;;;;;;30.59;31.47;98838.09;5049728;28;20124;-64
2021/06/13 08:57:11;;;;;;;3.95;3.50;;;;;;;30.21;32.38;98848.09;5049116;28;20076;-64
2021/06/13 08:59:39;;;;;;;3.45;3.25;;;;;;;29.63;32.34;98846.88;5047734;28;20440;-64
2021/06/13 09:02:06;;;;;;;3.70;2.70;;;;;;;29.20;33.61;98840.25;5051009;28;20041;-65
2021/06/13 09:04:33;;;;;;;4.07;2.97;;;;;;;28.90;33.86;98843.75;5048390;28;20049;-65
2021/06/13 09:06:59;;;;;;;4.95;2.78;;;;;;;28.37;33.58;98829.16;5048222;28;20069;-65
2021/06/13 09:09:26;;;;;;;4.13;2.95;;;;;;;28.14;34.74;98840.56;5049709;28;20060;-62
2021/06/13 09:12:06;;;;;;;3.00;2.80;;;;;;;28.26;35.14;98832.22;5049530;28;20166;-65
2021/06/13 09:14:43;;;;;;;4.75;2.72;;;;;;;27.68;35.03;98822.50;5047793;28;20033;-63
2021/06/13 09:17:25;;;;;;;4.18;3.28;;;;;;;27.29;36.40;98835.66;5047302;28;20124;-65
2021/06/13 09:20:23;;;;;;;5.82;3.50;;;;;;;26.94;37.90;98832.22;5062769;28;20041;-62
2021/06/13 09:23:05;;;;;;;4.82;3.03;;;;;;;26.71;37.78;98826.56;5034935;28;20045;-64
2021/06/13 09:25:33;;;;;;;6.68;2.80;;;;;;;26.56;39.00;98825.50;5048107;28;20041;-62
2021/06/13 09:28:09;;;;;;;3.47;3.10;;;;;;;26.49;38.10;98828.00;5046642;28;20068;-64
2021/06/13 09:30:36;;;;;;;2.70;2.50;;;;;;;26.32;38.56;98826.19;5047831;28;20049;-64
2021/06/13 09:33:04;;;;;;;3.72;2.58;;;;;;;26.10;38.37;98819.53;5047285;28;20036;-64
2021/06/13 09:35:30;;;;;;;4.13;2.47;;;;;;;25.93;39.51;98821.25;5047673;28;20127;-63
2021/06/13 09:38:15;;;;;;;3.22;3.03;;;;;;;25.99;39.52;98819.78;5063180;28;20041;-64
2021/06/13 09:41:02;;;;;;;4.97;2.65;;;;;;;25.68;39.39;98800.63;5063714;28;20037;-64
2021/06/13 09:43:38;;;;;;;4.60;2.45;;;;;;;25.92;38.74;98813.38;5064284;28;20135;-66
2021/06/13 09:46:25;;;;;;;2.70;2.50;;;;;;;25.94;38.37;98822.94;5048780;28;20581;-68
2021/06/13 09:49:04;;;;;;;5.72;2.55;;;;;;;25.68;38.77;98821.22;5048192;28;20037;-70
2021/06/13 09:51:33;;;;;;;3.88;2.78;;;;;;;25.81;38.72;98819.81;5048493;28;20045;-74
2021/06/13 09:54:01;;;;;;;3.15;2.35;;;;;;;25.75;38.83;98816.94;5047649;28;20652;-78
2021/06/13 09:56:31;;;;;;;4.30;2.30;;;;;;;25.60;37.65;98824.66;5045790;28;20048;-71
2021/06/13 09:59:01;;;;;;;3.58;2.35;;;;;;;25.56;37.96;98820.59;5046235;28;20572;-71
2021/06/13 10:01:37;;;;;;;2.53;2.30;;;;;;;25.87;37.42;98826.41;5047786;28;20131;-71
2021/06/13 10:04:05;;;;;;;2.47;2.28;;;;;;;25.89;36.38;98819.03;5047072;28;20110;-69
2021/06/13 10:06:34;;;;;;;2.97;2.55;;;;;;;25.83;38.08;98803.59;5046201;28;20136;-69
2021/06/13 10:09:01;;;;;;;2.55;2.35;;;;;;;25.53;38.16;98819.06;5047443;28;20056;-70
2021/06/13 10:11:27;;;;;;;2.50;2.40;;;;;;;25.50;38.43;98814.03;5044907;28;20057;-72
2021/06/13 10:13:55;;;;;;;4.25;2.70;;;;;;;25.45;39.56;98805.63;5044586;28;20059;-74
2021/06/13 10:16:22;;;;;;;3.97;2.67;;;;;;;25.55;40.12;98805.53;5047429;28;20060;-72
2021/06/13 10:18:57;;;;;;;2.90;2.70;;;;;;;25.88;38.39;98791.41;5047339;28;20049;-71
2021/06/13 10:21:34;;;;;;;6.97;2.70;;;;;;;26.27;40.03;98802.56;5048067;28;20072;-72
2021/06/13 10:24:03;;;;;;;3.35;2.80;;;;;;;26.31;40.49;98786.97;5060583;28;20147;-71
2021/06/13 10:26:28;;;;;;;2.80;2.60;;;;;;;26.19;38.73;98797.16;5061722;28;20041;-70
2021/06/13 10:28:55;;;;;;;3.10;2.90;;;;;;;26.03;37.82;98789.00;5044928;28;20039;-72
2021/06/13 10:31:21;;;;;;;3.92;2.75;;;;;;;26.10;37.85;98800.78;5045430;28;20037;-71
2021/06/13 10:33:46;;;;;;;3.00;2.80;;;;;;;26.09;37.47;98799.09;5047164;28;20064;-72
2021/06/13 10:36:15;;;;;;;4.82;2.50;;;;;;;26.06;38.42;98807.47;5046347;28;20414;-70
2021/06/13 10:38:41;;;;;;;2.53;2.33;;;;;;;26.04;37.27;98790.69;5047975;28;20037;-72
2021/06/13 10:41:07;;;;;;;3.13;2.60;;;;;;;26.21;38.37;98811.22;5046363;28;20037;-72
2021/06/13 10:43:32;;;;;;;6.03;2.90;;;;;;;26.21;39.59;98813.06;5046450;28;20055;-70
2021/06/13 10:46:36;;;;;;;6.78;3.40;;;;;;;26.32;38.33;98818.16;5062356;28;20067;-71
2021/06/13 10:49:04;;;;;;;3.35;3.05;;;;;;;26.25;38.22;98814.44;5045035;28;20560;-70
2021/06/13 10:51:37;;;;;;;3.40;3.10;;;;;;;26.35;38.82;98814.34;5047565;28;20090;-71
2021/06/13 10:54:27;;;;;;;4.45;2.72;;;;;;;26.54;41.45;98814.09;5047211;28;20051;-71
2021/06/13 10:57:08;;;;;;;7.38;3.20;;;;;;;26.27;41.10;98810.59;5051579;28;20099;-71
2021/06/13 10:59:36;;;;;;;3.40;3.00;;;;;;;26.16;40.20;98826.13;5050709;28;20092;-71
2021/06/13 11:02:11;;;;;;;3.00;2.78;;;;;;;26.21;40.34;98819.28;5050636;28;20044;-74
2021/06/13 11:05:08;;;;;;;4.07;2.90;;;;;;;26.31;40.19;98821.00;5049315;28;20589;-72
2021/06/13 11:07:37;;;;;;;3.10;2.80;;;;;;;26.12;40.61;98824.75;5038655;28;20057;-76
2021/06/13 11:10:26;;;;;;;2.50;2.30;;;;;;;26.04;38.71;98822.84;5033887;28;20067;-71
2021/06/13 11:13:05;;;;;;;3.15;2.88;;;;;;;26.23;39.30;98817.28;5049686;28;20040;-68
2021/06/13 11:15:40;;;;;;;7.97;2.50;;;;;;;26.31;38.65;98818.31;5048168;28;20051;-71
2021/06/13 11:18:15;;;;;;;3.05;2.60;;;;;;;26.25;38.79;98823.31;5048109;28;20390;-71
2021/06/13 11:20:49;;;;;;;2.80;2.60;;;;;;;26.00;39.27;98824.13;5065485;28;20049;-76
2021/06/13 11:23:40;;;;;;;2.40;2.30;;;;;;;25.73;37.66;98818.94;5052616;28;20124;-71
2021/06/13 11:26:11;;;;;;;4.80;2.53;;;;;;;25.79;38.13;98823.66;5052700;28;20045;-70
2021/06/13 11:28:41;;;;;;;7.07;2.40;;;;;;;25.94;37.31;98835.50;5052808;28;20040;-72
2021/06/13 11:31:12;;;;;;;3.35;2.30;;;;;;;25.96;37.74;98830.81;5052995;28;20140;-72
2021/06/13 11:34:02;;;;;;;2.83;2.60;;;;;;;25.94;41.38;98848.88;5053006;28;20441;-75